x

Buoy M01 - Jordan Basin (44037) Wave Buoy

1:04am - Thu 18th Dec 2014 All times are EST. -5 hours from GMT.

  • Sig Wave height 7.5ft
  • Peak Period 6s
  • Wind
    25mph, 29mph gusts
  • Sea Temp 49°f
  • Air Temp 41°f
  • Sea Pressure 999.4mb
  • Buoy M01 - Jordan Basin
  • Buoy M01 - Jordan Basin

More Historic Weather Station data

Upgrade to MSW Pro to gain access to the past 30 days of data for over 8000 Wavebouys and Weather Stations around the globe.

Join Pro

Comparision Forecast

View Surf forecast
   
Thu 12/18 1:04am 7.5ft 6s 25 29 mph 999.4mb 49f 41f
12:04am  -   -  29 34 mph 998.5mb - 42f
Wed 12/17 8:04pm 6ft 8s 11 13 mph 998.4mb 49f 48f
7:04pm 8ft 8s 13 16 mph 999.2mb 49f 48f
6:04pm 10ft 8s 13 18 mph 999.5mb - 49f
5:04pm 9ft 8s 20 22 mph 999.9mb 50f 48f
4:04pm  -   -  22 27 mph 1000.6mb - 48f
3:04pm 11ft 8s 29 34 mph 1001.3mb - 47f
2:04pm 10.5ft 8s 29 38 mph 1002.6mb 49f 47f
12:04pm 9.5ft 8s 31 38 mph 1004.7mb 50f 47f
11:04am 8ft 6s 29 38 mph 1006.4mb 50f 47f
10:04am 8.5ft 6s 29 34 mph 1008.3mb 49f 46f
9:04am 8ft 6s 27 31 mph 1009.3mb 49f 47f
8:04am  -   -  27 31 mph 1009.7mb - 47f
7:04am  -   -  25 31 mph 1010.7mb - 46f
6:04am 5.5ft 5s 22 27 mph 1011.5mb 49f 46f
5:04am  -   -  22 27 mph 1012.3mb - 46f
4:04am  -   -  20 22 mph 1013.1mb - 46f
3:04am 3ft 5s 20
mph
1014mb 49f 46f
2:04am 2.5ft 4s 18 20 mph 1014.7mb 49f 46f
1:04am 2.5ft 4s 16 18 mph 1015.3mb 49f 46f
12:04am 2.5ft 4s 16 18 mph 1015.9mb 49f 46f
Tue 12/16 11:04pm 2.5ft 3s 16 18 mph 1016.7mb 49f 46f
10:04pm 2ft 4s 13 16 mph 1016.9mb 49f 45f
9:04pm 2.5ft 8s 13 18 mph 1017.5mb 49f 45f
8:04pm 2.5ft 11s 13 16 mph 1018mb 49f 44f
7:04pm 2ft 11s 11 13 mph 1018.6mb 49f 43f
6:04pm 2.5ft 11s 9 13 mph 1018.8mb 49f 43f
5:04pm  -   -  4 9 mph 1018.6mb 50f 43f
4:04pm 2.5ft 11s 9 13 mph 1019.1mb 49f 43f
3:04pm 1.6ft 11s 9 11 mph 1019.2mb 50f 42f
2:04pm 2ft 11s 9 13 mph 1019.5mb 50f 42f
1:04pm 2ft 11s 4 7 mph 1020mb 49f 40f
12:04pm 2.5ft 11s 4 7 mph 1020.7mb 49f 40f
11:04am 2ft 11s 4 7 mph 1021.4mb 49f 39f
10:04am 2ft 8s 4 7 mph 1021.9mb 49f 40f
9:04am 2.5ft 11s 2
mph
1022.1mb 49f 41f
8:04am 2.5ft 11s 2 4 mph 1021.5mb 49f 39f
4:04am  -   -  7 9 mph 1020.6mb - 38f
3:04am 2.5ft 11s 7 9 mph 1021mb 49f 38f
2:04am 2.5ft 5s 7 9 mph 1020.8mb 49f 39f
1:04am 2.5ft 11s 7 9 mph 1020.6mb 49f 39f
12:04am 2.5ft 5s  -  mph - 49f -
Mon 12/15 11:04pm 2.5ft 5s  -  mph - 49f -
10:04pm 2.5ft 5s  -  mph - 49f -
7:04pm 3.5ft 5s 9 11 mph 1019.4mb 49f 38f
6:04pm 4.5ft 11s 11 16 mph 1018.5mb 50f 37f
5:04pm 3.5ft 5s 13 16 mph 1017.8mb 49f 38f
4:04pm 4ft 5s 13 18 mph 1017.2mb 49f 38f
1:04pm 5ft 5s 18 20 mph 1015.4mb 49f 37f
11:04am 4.5ft 5s 18 22 mph 1015.4mb 49f 38f
10:04am  -   -  18 22 mph 1014.9mb - 38f
7:04am 4.5ft 5s 22 27 mph 1012.4mb 49f 38f
6:04am 4.5ft 5s 18 25 mph 1011.8mb 49f 39f
3:04am 4ft 5s 16 20 mph 1009.7mb 49f 40f
2:04am 4.5ft 5s 18 22 mph 1009.4mb 49f 39f
1:04am 4ft 5s 18 25 mph 1009mb 49f 39f
12:04am 3.5ft 5s 20 25 mph 1009.1mb 49f 40f
Sun 12/14 11:04pm 3.5ft 5s 18 22 mph 1009.1mb 49f 40f
8:04pm 4ft 5s  -  mph - 49f -
7:04pm 4.5ft 5s 18 25 mph 1007.9mb 49f 40f
4:04pm 3.5ft 5s 18 20 mph 1006.7mb 49f 41f
3:04pm  -   -  18 22 mph 1006.1mb - 41f
2:04pm 3.5ft 5s 16 20 mph 1005.8mb 49f 41f
11:04am 5ft 11s 16 20 mph 1006.1mb 49f 39f
8:04am  -   -  18 22 mph 1006.4mb - 41f